Time;durP1;ratioP1;P1;durP2;ratioP2;P2;SDS_P1;SDS_P2;PMS_P1;PMS_P2;Temp;Humidity;BMP_temperature;BMP_pressure;BME280_temperature;BME280_humidity;BME280_pressure;Samples;Min_cycle;Max_cycle;Signal;HPM_P1;HPM_P2
2022/11/27 00:01:38;;;;;;;11.57;3.00;;;5.60;99.90;;;;;;5093352;28;20048;-81
2022/11/27 00:04:09;;;;;;;11.60;3.08;;;6.60;99.90;;;;;;5093018;28;20051;-81
2022/11/27 00:06:38;;;;;;;15.80;3.28;;;5.50;99.90;;;;;;5092607;28;20040;-81
2022/11/27 00:09:06;;;;;;;5.90;2.85;;;5.70;99.90;;;;;;5092866;28;20066;-81
2022/11/27 00:11:33;;;;;;;8.60;3.08;;;5.60;99.90;;;;;;5076115;28;20036;-81
2022/11/27 00:13:59;;;;;;;11.60;3.00;;;5.60;99.90;;;;;;5076248;28;20369;-81
2022/11/27 00:16:26;;;;;;;9.35;2.72;;;6.20;99.90;;;;;;5094217;28;20047;-79
2022/11/27 00:18:52;;;;;;;9.68;3.00;;;5.80;99.90;;;;;;5094530;28;20501;-79
2022/11/27 00:21:27;;;;;;;13.82;3.25;;;5.60;99.90;;;;;;5094748;28;20392;-79
2022/11/27 00:23:56;;;;;;;7.22;2.95;;;5.70;99.90;;;;;;5094038;28;20058;-79
2022/11/27 00:26:22;;;;;;;10.23;3.00;;;5.60;99.90;;;;;;5093829;28;20074;-80
2022/11/27 00:28:48;;;;;;;10.85;2.42;;;5.60;99.90;;;;;;5094302;28;20114;-79
2022/11/27 00:31:25;;;;;;;8.02;2.92;;;6.10;99.90;;;;;;5072492;28;20137;-79
2022/11/27 00:33:54;;;;;;;9.48;3.22;;;6.50;99.90;;;;;;5077962;28;20075;-79
2022/11/27 00:36:19;;;;;;;8.80;3.10;;;5.70;99.90;;;;;;5094182;28;20052;-79
2022/11/27 00:38:45;;;;;;;17.25;3.65;;;5.70;99.90;;;;;;5094083;28;20491;-79
2022/11/27 00:41:15;;;;;;;6.60;3.30;;;5.70;99.90;;;;;;5091434;28;20040;-79
2022/11/27 00:43:41;;;;;;;7.22;2.67;;;6.10;99.90;;;;;;5090322;28;20039;-79
2022/11/27 00:46:06;;;;;;;11.20;2.85;;;6.90;99.90;;;;;;5092258;28;20031;-79
2022/11/27 00:48:33;;;;;;;9.15;3.03;;;5.70;99.90;;;;;;5093269;28;20484;-79
2022/11/27 00:51:03;;;;;;;7.85;2.85;;;5.70;99.90;;;;;;5072959;28;20046;-79
2022/11/27 00:53:31;;;;;;;8.38;3.25;;;7.00;99.90;;;;;;5075841;28;20518;-79
2022/11/27 00:55:57;;;;;;;10.48;3.20;;;7.30;99.90;;;;;;5093575;28;20407;-79
2022/11/27 00:58:23;;;;;;;15.98;3.88;;;6.80;99.90;;;;;;5093387;28;20036;-79
2022/11/27 01:00:57;;;;;;;10.65;2.75;;;5.60;99.90;;;;;;5093368;28;20075;-79
2022/11/27 01:03:24;;;;;;;10.50;3.28;;;5.60;99.90;;;;;;5093052;28;20149;-79
2022/11/27 01:05:50;;;;;;;6.88;3.05;;;5.60;99.90;;;;;;5076732;28;20036;-79
2022/11/27 01:08:18;;;;;;;7.22;2.85;;;5.50;99.90;;;;;;5093231;28;20025;-80
2022/11/27 01:10:54;;;;;;;12.63;3.47;;;6.50;99.90;;;;;;5093050;28;20124;-80
2022/11/27 01:13:29;;;;;;;9.23;2.50;;;5.60;99.90;;;;;;5076275;28;20123;-80
2022/11/27 01:15:59;;;;;;;9.77;3.03;;;5.50;99.90;;;;;;5075533;28;20066;-80
2022/11/27 01:18:25;;;;;;;13.98;3.42;;;5.60;99.90;;;;;;5076048;28;20044;-80
2022/11/27 01:20:54;;;;;;;11.50;3.03;;;5.50;99.90;;;;;;5076033;28;20051;-80
2022/11/27 01:23:21;;;;;;;13.10;3.45;;;5.50;99.90;;;;;;5092867;28;20063;-80
2022/11/27 01:25:47;;;;;;;10.02;3.00;;;5.50;99.90;;;;;;5092272;28;20036;-80
2022/11/27 01:28:13;;;;;;;8.90;2.67;;;5.90;99.90;;;;;;5092654;28;20040;-80
2022/11/27 01:30:39;;;;;;;7.32;2.80;;;5.50;99.90;;;;;;5076147;28;20036;-80
2022/11/27 01:33:05;;;;;;;11.68;2.95;;;6.70;99.90;;;;;;5091900;22;20044;-77
2022/11/27 01:35:31;;;;;;;11.10;2.60;;;7.10;99.90;;;;;;5094656;28;20067;-77
2022/11/27 01:37:57;;;;;;;9.57;2.88;;;5.50;99.90;;;;;;5095917;28;20035;-79
2022/11/27 01:40:23;;;;;;;9.27;3.22;;;6.10;99.90;;;;;;5079307;28;20122;-80
2022/11/27 01:42:48;;;;;;;9.98;2.97;;;5.60;99.90;;;;;;5095889;28;20044;-80
2022/11/27 01:45:16;;;;;;;16.40;3.33;;;5.60;99.90;;;;;;5050267;28;20036;-80
2022/11/27 01:47:56;;;;;;;9.02;3.15;;;5.60;99.90;;;;;;5095016;28;20038;-80
2022/11/27 01:50:29;;;;;;;12.68;3.40;;;5.70;99.90;;;;;;5095597;28;20461;-80
2022/11/27 01:53:09;;;;;;;11.57;2.65;;;4.70;99.90;;;;;;5096354;28;20074;-80
2022/11/27 01:55:53;;;;;;;12.82;3.75;;;5.70;99.90;;;;;;5095209;28;20043;-77
2022/11/27 01:58:23;;;;;;;11.98;3.10;;;5.70;99.90;;;;;;5095781;28;20425;-79
2022/11/27 02:00:49;;;;;;;7.60;3.17;;;6.70;99.90;;;;;;5095612;28;20498;-80
2022/11/27 02:03:15;;;;;;;12.15;2.70;;;5.80;99.90;;;;;;5078751;28;20039;-82
2022/11/27 02:05:41;;;;;;;8.80;3.47;;;5.80;99.90;;;;;;5078910;28;20045;-82
2022/11/27 02:08:16;;;;;;;6.70;3.30;;;5.80;99.90;;;;;;5078496;28;20035;-82
2022/11/27 02:11:13;;;;;;;7.00;3.10;;;5.80;99.90;;;;;;5079058;28;20044;-82
2022/11/27 02:13:46;;;;;;;11.60;2.88;;;5.90;99.90;;;;;;5095605;28;20039;-82
2022/11/27 02:16:34;;;;;;;10.23;2.90;;;6.10;99.90;;;;;;5094875;28;20031;-82
2022/11/27 02:19:24;;;;;;;8.57;2.80;;;5.90;99.90;;;;;;5095001;28;20035;-82
2022/11/27 02:22:03;;;;;;;13.43;4.18;;;5.90;99.90;;;;;;5095204;28;20044;-82
2022/11/27 02:24:41;;;;;;;9.23;3.17;;;5.90;99.90;;;;;;5095278;28;20039;-82
2022/11/27 02:27:25;;;;;;;7.20;2.55;;;5.90;99.90;;;;;;5077626;28;20570;-82
2022/11/27 02:29:56;;;;;;;13.77;3.22;;;6.10;99.90;;;;;;5077601;28;20050;-80
2022/11/27 02:32:28;;;;;;;14.48;3.10;;;5.90;99.90;;;;;;5095189;28;20043;-80
2022/11/27 02:35:00;;;;;;;6.18;2.97;;;6.50;99.90;;;;;;5078159;28;20063;-82
2022/11/27 02:37:28;;;;;;;12.45;4.05;;;6.50;99.90;;;;;;5085692;28;20105;-82
2022/11/27 02:40:03;;;;;;;11.13;2.95;;;5.90;99.90;;;;;;5084731;28;20407;-82
2022/11/27 02:42:37;;;;;;;6.25;3.50;;;5.90;99.90;;;;;;5094871;28;20550;-82
2022/11/27 02:45:11;;;;;;;9.68;3.28;;;6.10;99.90;;;;;;5078375;28;20458;-82
2022/11/27 02:47:38;;;;;;;14.60;3.55;;;5.90;99.90;;;;;;5093997;28;20035;-78
2022/11/27 02:50:08;;;;;;;7.38;2.55;;;6.90;99.90;;;;;;5061092;28;20118;-78
2022/11/27 02:52:36;;;;;;;8.68;3.05;;;5.90;99.90;;;;;;5112046;28;20051;-78
2022/11/27 02:55:06;;;;;;;10.50;3.05;;;5.90;99.90;;;;;;5082080;28;20104;-77
2022/11/27 02:57:34;;;;;;;6.45;2.67;;;5.80;99.90;;;;;;5094440;28;20096;-80
2022/11/27 03:00:00;;;;;;;10.10;2.72;;;7.00;99.90;;;;;;5077936;28;20402;-80
2022/11/27 03:02:34;;;;;;;10.15;3.30;;;5.80;99.90;;;;;;5094688;28;20046;-80
2022/11/27 03:05:03;;;;;;;7.43;2.60;;;5.80;99.90;;;;;;5094636;28;20570;-82
2022/11/27 03:07:41;;;;;;;9.05;2.85;;;7.50;99.90;;;;;;5077748;28;20387;-77
2022/11/27 03:10:20;;;;;;;8.40;2.60;;;6.10;99.90;;;;;;5094813;28;20089;-78
2022/11/27 03:12:48;;;;;;;9.25;3.00;;;5.80;99.90;;;;;;5097664;28;20495;-82
2022/11/27 03:15:14;;;;;;;8.93;2.95;;;5.90;99.90;;;;;;5103899;28;20051;-82
2022/11/27 03:17:46;;;;;;;9.30;4.05;;;5.80;99.90;;;;;;5077478;28;20122;-82
2022/11/27 03:20:19;;;;;;;9.55;3.42;;;5.80;99.90;;;;;;5094460;28;20550;-82
2022/11/27 03:22:45;;;;;;;7.38;3.30;;;5.50;99.90;;;;;;5094226;28;20047;-82
2022/11/27 03:25:11;;;;;;;7.22;2.92;;;5.80;99.90;;;;;;5076823;28;20039;-82
2022/11/27 03:27:46;;;;;;;6.55;2.85;;;5.80;99.90;;;;;;5094494;28;20502;-82
2022/11/27 03:30:13;;;;;;;10.63;2.95;;;5.80;99.90;;;;;;5093486;28;20036;-82
2022/11/27 03:32:38;;;;;;;10.38;3.58;;;5.80;99.90;;;;;;5097160;28;20065;-82
2022/11/27 03:35:08;;;;;;;14.48;3.03;;;5.80;99.90;;;;;;5081451;28;20051;-83
2022/11/27 03:37:34;;;;;;;7.55;3.38;;;5.80;99.90;;;;;;5098605;28;20493;-78
2022/11/27 03:40:01;;;;;;;6.80;3.17;;;5.80;99.90;;;;;;5098004;28;20126;-78
2022/11/27 03:42:30;;;;;;;6.60;3.13;;;5.80;99.90;;;;;;5081687;28;20045;-78
2022/11/27 03:45:20;;;;;;;6.80;3.25;;;5.90;99.90;;;;;;5098481;28;20164;-78
2022/11/27 03:48:32;;;;;;;9.82;4.03;;;5.80;99.90;;;;;;5098206;28;20130;-78
2022/11/27 03:50:58;;;;;;;8.18;3.10;;;5.80;99.90;;;;;;5075686;28;20108;-78
2022/11/27 03:53:45;;;;;;;11.50;3.30;;;5.90;99.90;;;;;;5098589;28;20047;-80
2022/11/27 03:56:31;;;;;;;11.73;3.65;;;6.00;99.90;;;;;;5096934;28;20032;-80
2022/11/27 03:59:13;;;;;;;10.10;3.75;;;5.90;99.90;;;;;;5098268;28;20036;-80
2022/11/27 04:01:39;;;;;;;9.60;2.95;;;5.90;99.90;;;;;;5097277;28;20422;-80
2022/11/27 04:04:06;;;;;;;8.38;2.95;;;6.30;99.90;;;;;;5098114;28;20040;-80
2022/11/27 04:06:31;;;;;;;4.97;2.85;;;5.90;99.90;;;;;;5097793;28;20063;-80
2022/11/27 04:08:57;;;;;;;9.45;3.45;;;5.90;99.90;;;;;;5081334;28;20479;-80
2022/11/27 04:11:23;;;;;;;10.52;3.55;;;6.20;99.90;;;;;;5096820;28;20058;-78
2022/11/27 04:13:50;;;;;;;11.25;3.03;;;5.90;99.90;;;;;;5097625;28;20084;-78
2022/11/27 04:16:17;;;;;;;6.18;2.70;;;5.90;99.90;;;;;;5080822;28;20035;-78
2022/11/27 04:18:42;;;;;;;6.60;3.28;;;6.30;99.90;;;;;;5061352;28;20430;-78
2022/11/27 04:21:08;;;;;;;8.68;3.88;;;6.00;99.90;;;;;;5093707;28;20046;-78
2022/11/27 04:23:36;;;;;;;6.32;2.80;;;5.90;99.90;;;;;;5095988;28;20390;-78
2022/11/27 04:26:02;;;;;;;8.00;2.58;;;6.00;99.90;;;;;;5080293;28;20044;-78
2022/11/27 04:28:28;;;;;;;10.88;3.42;;;5.90;99.90;;;;;;5080222;28;20543;-78
2022/11/27 04:30:53;;;;;;;8.90;2.58;;;6.10;99.90;;;;;;5080395;28;20035;-78
2022/11/27 04:33:19;;;;;;;12.20;3.20;;;5.90;99.90;;;;;;5096798;28;20039;-78
2022/11/27 04:35:45;;;;;;;11.07;2.72;;;6.20;99.90;;;;;;5080628;28;20372;-78
2022/11/27 04:38:11;;;;;;;6.40;2.50;;;5.90;99.90;;;;;;5079928;28;20039;-78
2022/11/27 04:40:37;;;;;;;9.88;3.40;;;5.80;99.90;;;;;;5097186;28;20564;-78
2022/11/27 04:43:03;;;;;;;9.07;3.28;;;5.90;99.90;;;;;;5096836;28;20078;-82
2022/11/27 04:45:28;;;;;;;6.18;2.92;;;5.80;99.90;;;;;;5063733;28;20044;-83
2022/11/27 04:47:54;;;;;;;7.90;2.92;;;7.60;99.90;;;;;;5095997;28;20031;-83
2022/11/27 04:50:20;;;;;;;6.50;2.80;;;5.90;99.90;;;;;;5096114;28;20042;-82
2022/11/27 04:52:45;;;;;;;10.23;3.13;;;5.90;99.90;;;;;;5106585;28;20118;-82
2022/11/27 04:55:11;;;;;;;6.93;3.05;;;7.80;99.90;;;;;;5096978;28;20051;-82
2022/11/27 04:57:36;;;;;;;5.20;2.40;;;6.90;99.90;;;;;;5080214;28;20050;-82
2022/11/27 05:00:03;;;;;;;10.15;3.00;;;6.00;99.90;;;;;;5096413;28;20036;-81
2022/11/27 05:02:29;;;;;;;9.27;3.15;;;6.00;99.90;;;;;;5079881;28;20044;-81
2022/11/27 05:04:55;;;;;;;9.60;2.88;;;6.00;99.90;;;;;;5096476;28;20054;-80
2022/11/27 05:07:20;;;;;;;6.30;2.72;;;6.50;99.90;;;;;;5096311;28;20482;-80
2022/11/27 05:09:46;;;;;;;8.55;2.47;;;6.20;99.90;;;;;;5079198;28;20035;-80
2022/11/27 05:12:12;;;;;;;8.35;2.65;;;6.00;99.90;;;;;;5096466;28;20171;-80
2022/11/27 05:14:38;;;;;;;4.82;2.30;;;6.70;99.90;;;;;;5096326;28;20043;-80
2022/11/27 05:17:03;;;;;;;4.95;2.83;;;6.80;99.90;;;;;;5079657;28;20075;-78
2022/11/27 05:19:30;;;;;;;7.10;2.60;;;6.00;99.90;;;;;;5095924;28;20046;-78
2022/11/27 05:21:56;;;;;;;6.72;2.40;;;6.10;99.90;;;;;;5096813;28;20387;-78
2022/11/27 05:24:24;;;;;;;10.63;3.10;;;6.40;99.90;;;;;;5076991;28;20028;-78
2022/11/27 05:26:50;;;;;;;8.23;2.45;;;6.00;99.90;;;;;;5069890;28;20119;-78
2022/11/27 05:29:17;;;;;;;9.20;2.88;;;6.10;99.90;;;;;;5069243;28;20127;-78
2022/11/27 05:31:43;;;;;;;7.15;3.05;;;6.10;99.90;;;;;;5096240;28;20414;-78
2022/11/27 05:34:09;;;;;;;5.70;2.20;;;6.10;99.90;;;;;;5079078;28;20043;-82
2022/11/27 05:36:36;;;;;;;12.50;3.33;;;6.00;99.90;;;;;;5095767;28;20515;-82
2022/11/27 05:39:05;;;;;;;6.50;2.35;;;6.00;99.90;;;;;;5095948;28;20120;-82
2022/11/27 05:41:31;;;;;;;6.43;2.40;;;6.10;99.90;;;;;;5078531;28;20051;-82
2022/11/27 05:43:57;;;;;;;5.80;2.53;;;6.10;99.90;;;;;;5096035;28;20110;-82
2022/11/27 05:46:22;;;;;;;6.95;2.70;;;6.50;99.90;;;;;;5095404;28;20177;-83
2022/11/27 05:48:49;;;;;;;10.68;2.85;;;6.10;99.90;;;;;;5078952;28;20040;-82
2022/11/27 05:51:15;;;;;;;8.73;2.60;;;6.10;99.90;;;;;;5085865;28;20051;-82
2022/11/27 05:53:40;;;;;;;5.80;2.45;;;5.70;99.90;;;;;;5080971;28;20083;-82
2022/11/27 05:56:09;;;;;;;4.30;2.08;;;6.10;99.90;;;;;;5095496;28;20124;-82
2022/11/27 05:58:36;;;;;;;5.97;2.42;;;6.10;99.90;;;;;;5095633;28;20495;-83
2022/11/27 06:01:02;;;;;;;7.00;2.58;;;6.10;99.90;;;;;;5077948;28;20039;-82
2022/11/27 06:03:28;;;;;;;8.50;2.35;;;6.10;99.90;;;;;;5095908;28;20047;-83
2022/11/27 06:05:54;;;;;;;7.35;2.45;;;6.20;99.90;;;;;;5078173;28;20031;-82
2022/11/27 06:08:19;;;;;;;6.53;3.28;;;6.10;99.90;;;;;;5095566;28;20122;-82
2022/11/27 06:10:46;;;;;;;5.60;2.30;;;6.20;99.90;;;;;;5060804;28;20437;-83
2022/11/27 06:13:12;;;;;;;11.85;2.53;;;6.10;99.90;;;;;;5095032;28;20111;-82
2022/11/27 06:15:38;;;;;;;6.90;2.25;;;6.20;99.90;;;;;;5095288;28;20143;-82
2022/11/27 06:18:04;;;;;;;8.60;2.22;;;6.80;99.90;;;;;;5078008;28;20066;-82
2022/11/27 06:20:30;;;;;;;8.60;2.38;;;6.20;99.90;;;;;;5095200;28;20130;-82
2022/11/27 06:22:56;;;;;;;4.13;1.80;;;6.20;99.90;;;;;;5095012;28;20123;-83
2022/11/27 06:25:23;;;;;;;5.82;2.13;;;6.20;99.90;;;;;;5095137;28;20122;-82
2022/11/27 06:27:49;;;;;;;5.38;2.10;;;6.80;99.90;;;;;;5094755;28;20088;-82
2022/11/27 06:30:15;;;;;;;3.70;1.63;;;6.20;99.90;;;;;;5095247;28;20035;-83
2022/11/27 06:32:41;;;;;;;6.82;2.42;;;6.20;99.90;;;;;;5077655;28;20445;-82
2022/11/27 06:35:07;;;;;;;5.07;2.15;;;6.60;99.90;;;;;;5077884;28;20066;-82
2022/11/27 06:37:33;;;;;;;7.57;2.35;;;6.20;99.90;;;;;;5094060;28;20078;-82
2022/11/27 06:39:58;;;;;;;9.40;2.28;;;6.20;99.90;;;;;;5094715;28;20482;-80
2022/11/27 06:42:27;;;;;;;4.32;2.00;;;6.20;99.90;;;;;;5077500;28;20039;-80
2022/11/27 06:44:52;;;;;;;4.43;1.98;;;6.20;99.90;;;;;;5094725;28;20047;-80
2022/11/27 06:47:18;;;;;;;5.25;2.03;;;6.20;99.90;;;;;;5077930;28;20042;-80
2022/11/27 06:49:44;;;;;;;6.78;2.38;;;6.20;99.90;;;;;;5094130;28;20043;-80
2022/11/27 06:52:09;;;;;;;3.35;2.05;;;6.20;99.90;;;;;;5091112;28;20043;-80
2022/11/27 06:54:35;;;;;;;4.90;2.00;;;6.20;99.90;;;;;;5077521;28;20040;-80
2022/11/27 06:57:01;;;;;;;7.03;2.33;;;6.20;99.90;;;;;;5094409;28;20051;-80
2022/11/27 06:59:26;;;;;;;6.55;2.33;;;6.20;99.90;;;;;;5093761;28;20411;-80
2022/11/27 07:01:52;;;;;;;6.32;2.47;;;6.20;99.90;;;;;;5094717;28;20184;-80
2022/11/27 07:04:18;;;;;;;8.23;1.95;;;6.20;99.90;;;;;;5094065;28;20471;-80
2022/11/27 07:06:43;;;;;;;4.28;1.92;;;6.20;99.90;;;;;;5077147;28;20039;-80
2022/11/27 07:09:09;;;;;;;6.70;2.22;;;4.90;99.90;;;;;;5093935;28;20038;-80
2022/11/27 07:11:35;;;;;;;5.70;1.90;;;6.10;99.90;;;;;;5076449;28;20047;-80
2022/11/27 07:14:03;;;;;;;6.32;1.83;;;6.10;99.90;;;;;;5082256;28;20039;-82
2022/11/27 07:16:32;;;;;;;3.20;1.88;;;6.10;99.90;;;;;;5094055;28;20067;-83
2022/11/27 07:19:00;;;;;;;10.55;2.42;;;6.10;99.90;;;;;;5077628;28;20066;-82
2022/11/27 07:21:26;;;;;;;6.97;2.45;;;6.10;99.90;;;;;;5093973;28;20044;-82
2022/11/27 07:23:52;;;;;;;4.30;2.08;;;6.20;99.90;;;;;;5095273;28;20474;-82
2022/11/27 07:26:20;;;;;;;7.57;2.10;;;6.10;99.90;;;;;;5094907;28;20127;-82
2022/11/27 07:28:47;;;;;;;6.22;2.63;;;6.20;99.90;;;;;;5094246;28;20471;-83
2022/11/27 07:31:17;;;;;;;6.30;2.50;;;6.60;99.90;;;;;;5077037;28;20043;-80
2022/11/27 07:33:42;;;;;;;5.72;2.55;;;6.40;99.90;;;;;;5094422;22;20043;-83
2022/11/27 07:36:17;;;;;;;6.25;1.90;;;6.20;99.90;;;;;;5073958;28;20115;-82
2022/11/27 07:38:43;;;;;;;7.07;2.83;;;6.30;99.90;;;;;;5073619;28;20127;-83
2022/11/27 07:41:09;;;;;;;5.18;1.90;;;6.20;99.90;;;;;;5073875;28;20048;-83
2022/11/27 07:43:35;;;;;;;5.93;2.20;;;6.20;99.90;;;;;;5059766;28;20091;-83
2022/11/27 07:46:06;;;;;;;5.05;2.17;;;6.20;99.90;;;;;;5073898;28;20036;-82
2022/11/27 07:48:32;;;;;;;5.70;2.38;;;6.20;99.90;;;;;;5073441;28;20079;-80
2022/11/27 07:50:58;;;;;;;4.20;2.25;;;6.20;99.90;;;;;;5064743;28;20075;-80
2022/11/27 07:53:23;;;;;;;6.28;2.05;;;6.20;99.90;;;;;;5073205;28;20056;-80
2022/11/27 07:55:49;;;;;;;8.10;2.30;;;6.20;99.90;;;;;;5074093;28;20047;-80
2022/11/27 07:58:15;;;;;;;6.80;2.63;;;6.20;99.90;;;;;;5072804;28;20032;-80
2022/11/27 08:00:41;;;;;;;5.03;2.25;;;7.70;99.90;;;;;;5072634;28;20154;-80
2022/11/27 08:03:06;;;;;;;8.07;2.45;;;6.20;99.90;;;;;;5073783;28;20387;-80
2022/11/27 08:05:34;;;;;;;5.68;2.13;;;6.40;99.90;;;;;;5074089;28;20127;-80
2022/11/27 08:08:02;;;;;;;6.70;2.65;;;6.50;99.90;;;;;;5091881;28;20062;-80
2022/11/27 08:10:29;;;;;;;6.07;2.33;;;6.20;99.90;;;;;;5056785;28;20398;-80
2022/11/27 08:12:56;;;;;;;3.45;1.73;;;6.20;99.90;;;;;;5073480;28;20075;-80
2022/11/27 08:15:22;;;;;;;6.25;2.45;;;6.20;99.90;;;;;;5073747;28;20135;-82
2022/11/27 08:17:48;;;;;;;5.03;2.03;;;6.20;99.90;;;;;;5074385;28;20122;-82
2022/11/27 08:20:14;;;;;;;4.90;2.00;;;6.30;99.90;;;;;;5058122;28;20050;-78
2022/11/27 08:22:40;;;;;;;2.95;1.80;;;6.30;99.90;;;;;;5076838;28;20537;-78
2022/11/27 08:25:06;;;;;;;4.50;2.08;;;6.30;99.90;;;;;;5076728;28;20479;-78
2022/11/27 08:27:32;;;;;;;7.10;2.10;;;6.30;99.90;;;;;;5076181;28;20043;-78
2022/11/27 08:29:59;;;;;;;8.60;2.40;;;6.30;99.90;;;;;;5077045;28;20109;-78
2022/11/27 08:32:25;;;;;;;5.65;2.33;;;6.30;99.90;;;;;;5059576;28;20101;-78
2022/11/27 08:34:50;;;;;;;4.28;2.35;;;6.30;99.90;;;;;;5075499;28;20060;-78
2022/11/27 08:37:16;;;;;;;7.07;2.42;;;6.30;99.90;;;;;;5040527;28;20403;-80
2022/11/27 08:39:42;;;;;;;6.45;2.53;;;6.30;99.90;;;;;;5052625;28;20044;-80
2022/11/27 08:42:07;;;;;;;5.97;2.20;;;6.40;99.90;;;;;;5047459;28;20039;-80
2022/11/27 08:44:33;;;;;;;5.85;2.25;;;6.30;99.90;;;;;;5077516;28;20047;-80
2022/11/27 08:46:59;;;;;;;6.55;2.17;;;6.40;99.90;;;;;;5075904;28;20040;-80
2022/11/27 08:49:25;;;;;;;7.57;2.25;;;6.40;99.90;;;;;;5069099;28;20040;-80
2022/11/27 08:51:50;;;;;;;7.05;2.40;;;6.40;99.90;;;;;;5089047;28;20123;-80
2022/11/27 08:54:16;;;;;;;7.65;2.40;;;6.40;99.90;;;;;;5060836;28;20044;-78
2022/11/27 08:56:42;;;;;;;5.20;2.40;;;6.40;99.90;;;;;;5077291;28;20032;-81
2022/11/27 08:59:08;;;;;;;8.07;2.67;;;6.30;99.90;;;;;;5083564;28;20043;-80
2022/11/27 09:01:34;;;;;;;7.07;2.50;;;6.30;99.90;;;;;;5085342;28;20046;-80
2022/11/27 09:04:00;;;;;;;5.03;2.00;;;5.50;99.90;;;;;;5044094;28;20035;-80
2022/11/27 09:06:29;;;;;;;6.22;2.53;;;6.30;99.90;;;;;;5088357;28;20032;-80
2022/11/27 09:08:56;;;;;;;10.25;2.97;;;6.30;99.90;;;;;;5080233;28;20051;-80
2022/11/27 09:11:22;;;;;;;11.45;2.97;;;6.30;99.90;;;;;;5060786;28;20120;-78
2022/11/27 09:13:47;;;;;;;5.57;2.10;;;6.30;99.90;;;;;;5040770;28;20083;-78
2022/11/27 09:16:16;;;;;;;3.55;1.90;;;6.50;99.90;;;;;;5040321;28;20040;-78
2022/11/27 09:18:47;;;;;;;5.35;2.42;;;6.40;99.90;;;;;;5101679;28;20503;-78
2022/11/27 09:21:15;;;;;;;6.35;2.40;;;6.40;99.90;;;;;;5084238;28;20451;-78
2022/11/27 09:23:41;;;;;;;7.60;2.90;;;6.10;99.90;;;;;;5076755;28;20114;-78
2022/11/27 09:26:12;;;;;;;9.38;3.83;;;7.20;99.90;;;;;;5056793;28;20552;-80
2022/11/27 09:28:39;;;;;;;7.05;2.65;;;6.10;99.90;;;;;;5056169;28;20044;-80
2022/11/27 09:31:07;;;;;;;10.38;2.80;;;5.90;99.90;;;;;;5044544;28;20094;-80
2022/11/27 09:33:35;;;;;;;7.32;2.60;;;6.10;99.90;;;;;;5056392;28;20095;-80
2022/11/27 09:36:09;;;;;;;6.32;2.92;;;6.20;99.90;;;;;;5059008;28;20048;-80
2022/11/27 09:38:35;;;;;;;8.30;2.70;;;6.00;99.90;;;;;;5072935;28;20402;-80
2022/11/27 09:41:38;;;;;;;8.80;3.10;;;6.10;99.90;;;;;;5059398;28;20044;-80
2022/11/27 09:44:32;;;;;;;6.28;2.85;;;6.40;99.90;;;;;;5057398;28;20044;-80
2022/11/27 09:47:03;;;;;;;6.78;2.75;;;6.00;99.90;;;;;;5067061;28;20044;-80
2022/11/27 09:49:46;;;;;;;9.60;3.30;;;6.10;99.90;;;;;;5059206;28;20425;-79
2022/11/27 09:52:32;;;;;;;10.15;3.72;;;6.00;99.90;;;;;;5074105;28;20051;-79
2022/11/27 09:55:16;;;;;;;5.70;2.90;;;6.00;99.90;;;;;;5058414;28;20033;-79
2022/11/27 09:57:48;;;;;;;7.80;3.08;;;6.00;99.90;;;;;;5050088;28;20099;-79
2022/11/27 10:00:17;;;;;;;6.15;2.90;;;6.00;99.90;;;;;;5056123;28;20410;-80
2022/11/27 10:02:43;;;;;;;9.20;3.47;;;6.00;99.90;;;;;;5073354;28;20044;-80
2022/11/27 10:05:35;;;;;;;6.35;3.55;;;6.00;99.90;;;;;;5107408;28;20483;-81
2022/11/27 10:08:19;;;;;;;8.98;2.63;;;6.00;99.90;;;;;;5080258;28;20032;-81
2022/11/27 10:11:02;;;;;;;9.07;3.05;;;6.10;99.90;;;;;;5087831;28;20764;-80
2022/11/27 10:14:02;;;;;;;9.65;2.90;;;6.10;99.90;;;;;;5081933;28;20460;-81
2022/11/27 10:17:03;;;;;;;7.03;2.80;;;6.10;99.90;;;;;;5051155;28;20052;-82
2022/11/27 10:19:50;;;;;;;8.30;2.90;;;6.10;99.90;;;;;;5093383;28;20063;-82
2022/11/27 10:22:43;;;;;;;8.82;3.90;;;6.00;99.90;;;;;;5059137;28;20074;-82
2022/11/27 10:25:49;;;;;;;7.07;3.22;;;6.00;99.90;;;;;;5075389;28;20131;-83
2022/11/27 10:28:50;;;;;;;8.05;2.70;;;6.10;99.90;;;;;;5041973;28;20040;-82
2022/11/27 10:31:31;;;;;;;9.52;3.05;;;6.10;99.90;;;;;;5057459;28;20520;-82
2022/11/27 10:34:01;;;;;;;9.20;3.85;;;6.10;99.90;;;;;;5072384;28;20052;-80
2022/11/27 10:36:37;;;;;;;10.55;3.22;;;6.10;99.90;;;;;;5054893;28;20088;-80
2022/11/27 10:39:05;;;;;;;6.20;2.85;;;6.20;99.90;;;;;;5055188;28;20044;-80
2022/11/27 10:41:45;;;;;;;8.18;3.15;;;6.60;99.90;;;;;;5054635;28;20051;-80
2022/11/27 10:44:30;;;;;;;7.22;3.08;;;7.40;99.90;;;;;;5066183;28;20128;-80
2022/11/27 10:47:04;;;;;;;8.95;2.97;;;6.20;99.90;;;;;;5074861;28;20040;-80
2022/11/27 10:49:31;;;;;;;6.90;3.15;;;6.30;99.90;;;;;;5074842;28;20082;-79
2022/11/27 10:52:00;;;;;;;11.40;2.97;;;6.30;99.90;;;;;;5081629;28;20094;-78
2022/11/27 10:54:32;;;;;;;5.72;2.92;;;6.30;99.90;;;;;;5064336;28;20048;-78
2022/11/27 10:57:23;;;;;;;7.75;3.60;;;6.30;99.90;;;;;;5063003;28;20044;-79
2022/11/27 11:00:21;;;;;;;8.27;3.08;;;6.60;99.90;;;;;;5074818;28;20126;-78
2022/11/27 11:02:47;;;;;;;8.13;3.63;;;5.70;99.90;;;;;;5054988;28;20114;-82
2022/11/27 11:05:23;;;;;;;8.30;3.00;;;6.30;99.90;;;;;;5050818;28;20048;-79
2022/11/27 11:08:03;;;;;;;8.85;3.20;;;6.30;99.90;;;;;;5049404;28;20036;-80
2022/11/27 11:10:36;;;;;;;7.72;4.00;;;6.30;99.90;;;;;;5074851;28;20086;-80
2022/11/27 11:13:14;;;;;;;6.85;3.58;;;6.30;99.90;;;;;;5074405;28;20240;-80
2022/11/27 11:15:59;;;;;;;7.63;3.28;;;6.40;99.90;;;;;;5074133;28;20157;-80
2022/11/27 11:18:28;;;;;;;7.88;2.97;;;6.40;99.90;;;;;;5076739;28;20071;-80
2022/11/27 11:21:03;;;;;;;8.85;4.05;;;6.40;99.90;;;;;;5066070;28;20054;-80
2022/11/27 11:23:40;;;;;;;8.90;3.30;;;6.40;99.90;;;;;;5066415;28;20039;-82
2022/11/27 11:26:23;;;;;;;;;;;6.40;99.90;;;;;;5065862;28;20043;-82
2022/11/27 11:28:52;;;;;;;10.57;3.35;;;6.40;99.90;;;;;;5073316;28;19924;-82
2022/11/27 11:31:22;;;;;;;8.07;3.30;;;6.40;99.90;;;;;;5074318;28;20068;-82
2022/11/27 11:33:58;;;;;;;10.05;3.55;;;6.40;99.90;;;;;;5074194;28;20495;-82
2022/11/27 11:36:24;;;;;;;11.02;4.28;;;6.40;99.90;;;;;;5073946;28;20053;-82
2022/11/27 11:38:50;;;;;;;11.65;3.75;;;7.20;99.90;;;;;;5076640;28;20364;-82
2022/11/27 11:41:17;;;;;;;10.68;3.55;;;6.50;99.90;;;;;;5069269;28;20038;-81
2022/11/27 11:43:59;;;;;;;11.25;4.57;;;6.50;99.90;;;;;;5055976;28;20035;-81
2022/11/27 11:46:28;;;;;;;10.27;3.95;;;6.50;99.90;;;;;;5088414;28;20044;-81
2022/11/27 11:49:14;;;;;;;9.50;3.58;;;6.50;99.90;;;;;;5054785;28;20090;-81
2022/11/27 11:51:58;;;;;;;8.38;3.95;;;6.60;99.90;;;;;;5073405;28;20048;-81
2022/11/27 11:54:40;;;;;;;12.57;4.18;;;6.60;99.90;;;;;;5071039;28;20116;-81
2022/11/27 11:57:36;;;;;;;10.23;4.10;;;6.60;99.90;;;;;;5070934;28;20044;-80
2022/11/27 12:00:10;;;;;;;7.63;3.70;;;6.60;99.90;;;;;;5070507;28;20076;-80
2022/11/27 12:03:06;;;;;;;9.60;3.58;;;6.60;99.90;;;;;;5061531;28;20129;-80
2022/11/27 12:06:16;;;;;;;8.20;3.38;;;6.60;99.90;;;;;;5061286;28;20408;-80
2022/11/27 12:08:50;;;;;;;8.43;3.40;;;6.70;99.90;;;;;;5077707;28;20039;-80
2022/11/27 12:11:27;;;;;;;10.57;3.60;;;6.70;99.90;;;;;;5077342;28;20555;-80
2022/11/27 12:14:27;;;;;;;13.73;4.07;;;6.90;99.90;;;;;;5077539;28;20048;-80
2022/11/27 12:17:34;;;;;;;11.25;4.72;;;6.70;99.90;;;;;;5076525;28;20483;-80
2022/11/27 12:20:34;;;;;;;12.20;4.60;;;6.70;99.90;;;;;;5077165;28;20387;-80
2022/11/27 12:23:37;;;;;;;7.53;3.33;;;6.70;99.90;;;;;;5076515;28;20093;-80
2022/11/27 12:26:10;;;;;;;8.98;3.53;;;6.80;99.90;;;;;;5079215;28;20390;-80
2022/11/27 12:28:45;;;;;;;9.43;4.00;;;6.70;99.90;;;;;;5074197;28;20089;-80
2022/11/27 12:31:30;;;;;;;8.75;3.38;;;6.70;99.90;;;;;;5076881;28;20095;-80
2022/11/27 12:34:02;;;;;;;9.25;3.50;;;6.80;99.90;;;;;;5057523;28;20059;-80
2022/11/27 12:36:56;;;;;;;9.70;4.07;;;6.70;99.90;;;;;;5086817;28;20566;-80
2022/11/27 12:39:34;;;;;;;7.70;3.38;;;6.40;99.90;;;;;;5082499;28;20093;-80
2022/11/27 12:42:14;;;;;;;7.55;3.47;;;6.60;99.90;;;;;;5082897;28;20518;-80
2022/11/27 12:45:00;;;;;;;6.60;3.63;;;6.70;99.90;;;;;;5088378;28;20028;-80
2022/11/27 12:47:48;;;;;;;6.88;3.30;;;6.70;99.90;;;;;;5086150;28;20120;-80
2022/11/27 12:50:20;;;;;;;10.93;3.97;;;6.70;99.90;;;;;;5052921;28;20135;-80
2022/11/27 12:53:07;;;;;;;12.02;3.75;;;6.80;99.90;;;;;;5076387;28;20040;-80
2022/11/27 12:55:35;;;;;;;10.20;3.55;;;6.70;99.90;;;;;;5077890;28;20044;-81
2022/11/27 12:58:09;;;;;;;7.85;4.35;;;6.70;99.90;;;;;;5059805;28;20396;-82
2022/11/27 13:00:39;;;;;;;10.23;4.28;;;6.80;99.90;;;;;;5076969;28;20055;-81
2022/11/27 13:03:10;;;;;;;9.55;3.85;;;6.80;99.90;;;;;;5076980;28;20082;-81
2022/11/27 13:05:45;;;;;;;12.13;4.10;;;6.70;99.90;;;;;;5075728;28;20072;-81
2022/11/27 13:08:29;;;;;;;8.30;3.17;;;6.70;99.90;;;;;;5074972;28;20044;-81
2022/11/27 13:10:59;;;;;;;7.88;3.22;;;6.70;99.90;;;;;;5076075;28;20039;-81
2022/11/27 13:13:43;;;;;;;9.50;4.18;;;6.70;99.90;;;;;;5075414;28;20044;-81
2022/11/27 13:16:17;;;;;;;8.43;3.72;;;6.70;99.90;;;;;;5076582;28;20114;-81
2022/11/27 13:18:50;;;;;;;6.35;2.90;;;6.70;99.90;;;;;;5058201;28;20056;-81